images/hfc/images/print_logo.png
Drucken
[Quelle: ADDS]
METAR
EDDW 261850Z 28009KT 9999 FEW025 08/04 Q1015 NOSIG =
TAF
EDDW 261700Z 2618/2718 27014G24KT 9999 SCT025 BECMG 2618/2620 20007KT BECMG 2716/2718 08006KT =
BCMT / ECET: 03:17 / 19:27 UTC (EDDW 2018-04-26)

printlogo=no